sensor_id;sensor_type;location;lat;lon;timestamp;P1;durP1;ratioP1;P2;durP2;ratioP2
30133;SDS011;16946;49.984;10.672;2022-10-16T00:00:13;3.10;;;1.00;;
30133;SDS011;16946;49.984;10.672;2022-10-16T00:00:44;2.10;;;0.90;;
30133;SDS011;16946;49.984;10.672;2022-10-16T00:01:17;0.80;;;0.80;;
30133;SDS011;16946;49.984;10.672;2022-10-16T00:01:50;2.08;;;0.80;;
30133;SDS011;16946;49.984;10.672;2022-10-16T00:02:20;1.30;;;0.90;;
30133;SDS011;16946;49.984;10.672;2022-10-16T00:02:51;1.83;;;0.90;;
30133;SDS011;16946;49.984;10.672;2022-10-16T00:03:21;2.53;;;0.90;;
30133;SDS011;16946;49.984;10.672;2022-10-16T00:03:52;2.87;;;0.97;;
30133;SDS011;16946;49.984;10.672;2022-10-16T00:04:22;2.90;;;0.87;;
30133;SDS011;16946;49.984;10.672;2022-10-16T00:04:53;1.10;;;0.90;;
30133;SDS011;16946;49.984;10.672;2022-10-16T00:05:24;2.38;;;0.85;;
30133;SDS011;16946;49.984;10.672;2022-10-16T00:05:58;1.43;;;0.80;;
30133;SDS011;16946;49.984;10.672;2022-10-16T00:06:30;2.35;;;1.00;;
30133;SDS011;16946;49.984;10.672;2022-10-16T00:07:01;2.38;;;1.00;;
30133;SDS011;16946;49.984;10.672;2022-10-16T00:07:32;1.00;;;0.83;;
30133;SDS011;16946;49.984;10.672;2022-10-16T00:08:02;2.30;;;1.03;;
30133;SDS011;16946;49.984;10.672;2022-10-16T00:08:33;1.70;;;0.90;;
30133;SDS011;16946;49.984;10.672;2022-10-16T00:09:04;2.60;;;1.13;;
30133;SDS011;16946;49.984;10.672;2022-10-16T00:09:35;1.48;;;0.80;;
30133;SDS011;16946;49.984;10.672;2022-10-16T00:10:06;0.90;;;0.80;;
30133;SDS011;16946;49.984;10.672;2022-10-16T00:10:37;2.80;;;0.90;;
30133;SDS011;16946;49.984;10.672;2022-10-16T00:11:11;2.38;;;1.27;;
30133;SDS011;16946;49.984;10.672;2022-10-16T00:11:44;2.53;;;0.80;;
30133;SDS011;16946;49.984;10.672;2022-10-16T00:12:14;2.40;;;1.00;;
30133;SDS011;16946;49.984;10.672;2022-10-16T00:12:45;1.13;;;1.03;;
30133;SDS011;16946;49.984;10.672;2022-10-16T00:13:15;2.67;;;1.00;;
30133;SDS011;16946;49.984;10.672;2022-10-16T00:13:48;1.40;;;1.20;;
30133;SDS011;16946;49.984;10.672;2022-10-16T00:14:20;2.42;;;1.02;;
30133;SDS011;16946;49.984;10.672;2022-10-16T00:14:50;2.23;;;0.83;;
30133;SDS011;16946;49.984;10.672;2022-10-16T00:15:21;3.25;;;1.20;;
30133;SDS011;16946;49.984;10.672;2022-10-16T00:15:54;3.03;;;1.13;;
30133;SDS011;16946;49.984;10.672;2022-10-16T00:16:27;3.65;;;1.30;;
30133;SDS011;16946;49.984;10.672;2022-10-16T00:16:58;3.05;;;1.35;;
30133;SDS011;16946;49.984;10.672;2022-10-16T00:17:29;3.10;;;1.20;;
30133;SDS011;16946;49.984;10.672;2022-10-16T00:17:59;3.70;;;1.57;;
30133;SDS011;16946;49.984;10.672;2022-10-16T00:18:30;3.27;;;1.40;;
30133;SDS011;16946;49.984;10.672;2022-10-16T00:19:01;2.93;;;1.37;;
30133;SDS011;16946;49.984;10.672;2022-10-16T00:19:31;2.80;;;1.60;;
30133;SDS011;16946;49.984;10.672;2022-10-16T00:20:02;3.60;;;1.47;;
30133;SDS011;16946;49.984;10.672;2022-10-16T00:20:34;5.38;;;1.33;;
30133;SDS011;16946;49.984;10.672;2022-10-16T00:21:05;2.65;;;1.17;;
30133;SDS011;16946;49.984;10.672;2022-10-16T00:21:41;3.40;;;1.30;;
30133;SDS011;16946;49.984;10.672;2022-10-16T00:22:12;2.97;;;1.33;;
30133;SDS011;16946;49.984;10.672;2022-10-16T00:22:42;4.93;;;1.20;;
30133;SDS011;16946;49.984;10.672;2022-10-16T00:23:13;2.97;;;1.53;;
30133;SDS011;16946;49.984;10.672;2022-10-16T00:23:43;3.33;;;1.47;;
30133;SDS011;16946;49.984;10.672;2022-10-16T00:24:14;4.87;;;1.73;;
30133;SDS011;16946;49.984;10.672;2022-10-16T00:24:45;3.20;;;1.23;;
30133;SDS011;16946;49.984;10.672;2022-10-16T00:25:15;5.80;;;1.93;;
30133;SDS011;16946;49.984;10.672;2022-10-16T00:25:54;6.47;;;1.40;;
30133;SDS011;16946;49.984;10.672;2022-10-16T00:26:29;2.10;;;1.55;;
30133;SDS011;16946;49.984;10.672;2022-10-16T00:27:01;2.83;;;1.40;;
30133;SDS011;16946;49.984;10.672;2022-10-16T00:27:32;2.87;;;1.30;;
30133;SDS011;16946;49.984;10.672;2022-10-16T00:28:03;3.13;;;1.40;;
30133;SDS011;16946;49.984;10.672;2022-10-16T00:28:34;4.13;;;1.53;;
30133;SDS011;16946;49.984;10.672;2022-10-16T00:29:05;3.83;;;1.63;;
30133;SDS011;16946;49.984;10.672;2022-10-16T00:29:36;2.47;;;1.48;;
30133;SDS011;16946;49.984;10.672;2022-10-16T00:30:07;1.43;;;1.30;;
30133;SDS011;16946;49.984;10.672;2022-10-16T00:30:38;2.33;;;1.52;;
30133;SDS011;16946;49.984;10.672;2022-10-16T00:31:10;3.08;;;1.40;;
30133;SDS011;16946;49.984;10.672;2022-10-16T00:31:41;2.60;;;1.50;;
30133;SDS011;16946;49.984;10.672;2022-10-16T00:32:11;2.10;;;1.30;;
30133;SDS011;16946;49.984;10.672;2022-10-16T00:32:42;4.77;;;1.40;;
30133;SDS011;16946;49.984;10.672;2022-10-16T00:33:12;3.40;;;1.63;;
30133;SDS011;16946;49.984;10.672;2022-10-16T00:33:43;2.10;;;1.30;;
30133;SDS011;16946;49.984;10.672;2022-10-16T00:34:14;3.63;;;1.60;;
30133;SDS011;16946;49.984;10.672;2022-10-16T00:34:45;2.50;;;1.40;;
30133;SDS011;16946;49.984;10.672;2022-10-16T00:35:16;2.75;;;1.35;;
30133;SDS011;16946;49.984;10.672;2022-10-16T00:35:46;2.67;;;1.50;;
30133;SDS011;16946;49.984;10.672;2022-10-16T00:36:19;4.82;;;1.67;;
30133;SDS011;16946;49.984;10.672;2022-10-16T00:36:51;3.35;;;1.42;;
30133;SDS011;16946;49.984;10.672;2022-10-16T00:37:22;3.50;;;1.60;;
30133;SDS011;16946;49.984;10.672;2022-10-16T00:37:52;3.70;;;1.50;;
30133;SDS011;16946;49.984;10.672;2022-10-16T00:38:23;3.57;;;1.73;;
30133;SDS011;16946;49.984;10.672;2022-10-16T00:38:54;2.43;;;1.40;;
30133;SDS011;16946;49.984;10.672;2022-10-16T00:39:27;2.50;;;1.40;;
30133;SDS011;16946;49.984;10.672;2022-10-16T00:39:57;3.30;;;1.80;;
30133;SDS011;16946;49.984;10.672;2022-10-16T00:40:28;1.93;;;1.70;;
30133;SDS011;16946;49.984;10.672;2022-10-16T00:40:59;4.07;;;1.63;;
30133;SDS011;16946;49.984;10.672;2022-10-16T00:41:30;3.22;;;2.10;;
30133;SDS011;16946;49.984;10.672;2022-10-16T00:42:02;4.05;;;1.98;;
30133;SDS011;16946;49.984;10.672;2022-10-16T00:42:33;3.63;;;2.28;;
30133;SDS011;16946;49.984;10.672;2022-10-16T00:43:09;2.83;;;2.00;;
30133;SDS011;16946;49.984;10.672;2022-10-16T00:45:22;3.15;;;1.45;;
30133;SDS011;16946;49.984;10.672;2022-10-16T00:45:53;2.65;;;1.45;;
30133;SDS011;16946;49.984;10.672;2022-10-16T00:46:39;3.23;;;1.70;;
30133;SDS011;16946;49.984;10.672;2022-10-16T00:47:12;3.10;;;1.60;;
30133;SDS011;16946;49.984;10.672;2022-10-16T00:47:49;2.70;;;1.60;;
30133;SDS011;16946;49.984;10.672;2022-10-16T00:48:22;3.85;;;1.90;;
30133;SDS011;16946;49.984;10.672;2022-10-16T00:49:40;3.75;;;1.75;;
30133;SDS011;16946;49.984;10.672;2022-10-16T00:50:33;5.43;;;2.10;;
30133;SDS011;16946;49.984;10.672;2022-10-16T00:51:03;4.13;;;2.10;;
30133;SDS011;16946;49.984;10.672;2022-10-16T00:51:45;3.58;;;1.92;;
30133;SDS011;16946;49.984;10.672;2022-10-16T00:52:17;2.42;;;1.75;;
30133;SDS011;16946;49.984;10.672;2022-10-16T00:52:48;4.07;;;2.00;;
30133;SDS011;16946;49.984;10.672;2022-10-16T00:53:21;3.28;;;1.60;;
30133;SDS011;16946;49.984;10.672;2022-10-16T00:53:52;2.60;;;1.57;;
30133;SDS011;16946;49.984;10.672;2022-10-16T00:54:23;4.50;;;1.80;;
30133;SDS011;16946;49.984;10.672;2022-10-16T00:54:56;1.88;;;1.75;;
30133;SDS011;16946;49.984;10.672;2022-10-16T00:55:28;2.35;;;1.70;;
30133;SDS011;16946;49.984;10.672;2022-10-16T00:56:00;5.53;;;2.00;;
30133;SDS011;16946;49.984;10.672;2022-10-16T00:56:32;2.30;;;1.92;;
30133;SDS011;16946;49.984;10.672;2022-10-16T00:57:04;4.20;;;2.00;;
30133;SDS011;16946;49.984;10.672;2022-10-16T00:57:36;2.70;;;2.03;;
30133;SDS011;16946;49.984;10.672;2022-10-16T00:58:08;3.13;;;1.98;;
30133;SDS011;16946;49.984;10.672;2022-10-16T00:58:39;5.40;;;2.17;;
30133;SDS011;16946;49.984;10.672;2022-10-16T00:59:18;3.20;;;2.10;;
30133;SDS011;16946;49.984;10.672;2022-10-16T00:59:51;2.65;;;2.40;;
30133;SDS011;16946;49.984;10.672;2022-10-16T01:00:25;2.47;;;2.03;;
30133;SDS011;16946;49.984;10.672;2022-10-16T01:00:56;2.30;;;1.95;;
30133;SDS011;16946;49.984;10.672;2022-10-16T01:01:27;6.83;;;2.47;;
30133;SDS011;16946;49.984;10.672;2022-10-16T01:01:58;2.90;;;2.13;;
30133;SDS011;16946;49.984;10.672;2022-10-16T01:02:29;3.67;;;2.30;;
30133;SDS011;16946;49.984;10.672;2022-10-16T01:03:01;3.23;;;2.43;;
30133;SDS011;16946;49.984;10.672;2022-10-16T01:03:33;3.60;;;2.10;;
30133;SDS011;16946;49.984;10.672;2022-10-16T01:04:05;4.22;;;2.10;;
30133;SDS011;16946;49.984;10.672;2022-10-16T01:04:40;2.30;;;1.93;;
30133;SDS011;16946;49.984;10.672;2022-10-16T01:05:13;4.45;;;2.17;;
30133;SDS011;16946;49.984;10.672;2022-10-16T01:05:45;2.50;;;2.30;;
30133;SDS011;16946;49.984;10.672;2022-10-16T01:06:27;2.88;;;2.15;;
30133;SDS011;16946;49.984;10.672;2022-10-16T01:08:17;5.82;;;2.03;;
30133;SDS011;16946;49.984;10.672;2022-10-16T01:09:32;2.45;;;1.92;;
30133;SDS011;16946;49.984;10.672;2022-10-16T01:10:28;1.60;;;1.50;;
30133;SDS011;16946;49.984;10.672;2022-10-16T01:11:05;2.58;;;1.83;;
30133;SDS011;16946;49.984;10.672;2022-10-16T01:12:14;3.50;;;1.63;;
30133;SDS011;16946;49.984;10.672;2022-10-16T01:13:33;2.95;;;1.70;;
30133;SDS011;16946;49.984;10.672;2022-10-16T01:14:21;3.17;;;1.73;;
30133;SDS011;16946;49.984;10.672;2022-10-16T01:15:08;4.32;;;2.00;;
30133;SDS011;16946;49.984;10.672;2022-10-16T01:16:00;3.35;;;1.90;;
30133;SDS011;16946;49.984;10.672;2022-10-16T01:16:50;3.15;;;2.15;;
30133;SDS011;16946;49.984;10.672;2022-10-16T01:17:43;3.70;;;1.60;;
30133;SDS011;16946;49.984;10.672;2022-10-16T01:18:39;4.03;;;1.90;;
30133;SDS011;16946;49.984;10.672;2022-10-16T01:21:10;4.28;;;1.80;;
30133;SDS011;16946;49.984;10.672;2022-10-16T01:21:56;2.65;;;1.50;;
30133;SDS011;16946;49.984;10.672;2022-10-16T01:22:33;4.20;;;1.70;;
30133;SDS011;16946;49.984;10.672;2022-10-16T01:23:20;2.03;;;1.80;;
30133;SDS011;16946;49.984;10.672;2022-10-16T01:24:44;4.82;;;1.90;;
30133;SDS011;16946;49.984;10.672;2022-10-16T01:25:36;2.80;;;1.60;;
30133;SDS011;16946;49.984;10.672;2022-10-16T01:26:33;3.92;;;2.08;;
30133;SDS011;16946;49.984;10.672;2022-10-16T01:27:48;2.83;;;1.90;;
30133;SDS011;16946;49.984;10.672;2022-10-16T01:28:21;4.32;;;2.03;;
30133;SDS011;16946;49.984;10.672;2022-10-16T01:30:04;1.90;;;1.63;;
30133;SDS011;16946;49.984;10.672;2022-10-16T01:30:43;3.95;;;2.00;;
30133;SDS011;16946;49.984;10.672;2022-10-16T01:31:16;1.95;;;1.70;;
30133;SDS011;16946;49.984;10.672;2022-10-16T01:31:58;2.78;;;1.75;;
30133;SDS011;16946;49.984;10.672;2022-10-16T01:32:37;2.88;;;2.10;;
30133;SDS011;16946;49.984;10.672;2022-10-16T01:33:24;3.13;;;1.98;;
30133;SDS011;16946;49.984;10.672;2022-10-16T01:34:11;3.58;;;2.30;;
30133;SDS011;16946;49.984;10.672;2022-10-16T01:34:48;4.13;;;2.00;;
30133;SDS011;16946;49.984;10.672;2022-10-16T01:35:43;3.05;;;2.33;;
30133;SDS011;16946;49.984;10.672;2022-10-16T01:36:25;7.13;;;2.35;;
30133;SDS011;16946;49.984;10.672;2022-10-16T01:37:08;3.03;;;2.60;;
30133;SDS011;16946;49.984;10.672;2022-10-16T01:38:35;3.58;;;2.88;;
30133;SDS011;16946;49.984;10.672;2022-10-16T01:39:09;3.47;;;2.70;;
30133;SDS011;16946;49.984;10.672;2022-10-16T01:39:42;3.42;;;2.17;;
30133;SDS011;16946;49.984;10.672;2022-10-16T01:40:17;6.05;;;2.38;;
30133;SDS011;16946;49.984;10.672;2022-10-16T01:40:50;2.50;;;1.90;;
30133;SDS011;16946;49.984;10.672;2022-10-16T01:41:31;3.72;;;2.33;;
30133;SDS011;16946;49.984;10.672;2022-10-16T01:42:09;3.53;;;2.13;;
30133;SDS011;16946;49.984;10.672;2022-10-16T01:42:46;4.93;;;2.15;;
30133;SDS011;16946;49.984;10.672;2022-10-16T01:43:40;4.00;;;2.22;;
30133;SDS011;16946;49.984;10.672;2022-10-16T01:44:48;2.50;;;2.20;;
30133;SDS011;16946;49.984;10.672;2022-10-16T01:45:13;3.33;;;2.20;;
30133;SDS011;16946;49.984;10.672;2022-10-16T01:45:47;4.03;;;2.00;;
30133;SDS011;16946;49.984;10.672;2022-10-16T01:46:20;2.97;;;1.95;;
30133;SDS011;16946;49.984;10.672;2022-10-16T01:46:52;2.78;;;2.05;;
30133;SDS011;16946;49.984;10.672;2022-10-16T01:47:24;5.10;;;2.40;;
30133;SDS011;16946;49.984;10.672;2022-10-16T01:47:57;3.33;;;2.00;;
30133;SDS011;16946;49.984;10.672;2022-10-16T01:48:30;3.90;;;2.30;;
30133;SDS011;16946;49.984;10.672;2022-10-16T01:49:02;5.05;;;2.97;;
30133;SDS011;16946;49.984;10.672;2022-10-16T01:49:34;4.50;;;2.22;;
30133;SDS011;16946;49.984;10.672;2022-10-16T01:50:08;3.95;;;2.60;;
30133;SDS011;16946;49.984;10.672;2022-10-16T01:50:39;2.20;;;1.90;;
30133;SDS011;16946;49.984;10.672;2022-10-16T01:51:13;3.30;;;2.20;;
30133;SDS011;16946;49.984;10.672;2022-10-16T01:51:47;4.25;;;1.88;;
30133;SDS011;16946;49.984;10.672;2022-10-16T01:52:21;4.22;;;1.83;;
30133;SDS011;16946;49.984;10.672;2022-10-16T01:52:55;4.30;;;2.30;;
30133;SDS011;16946;49.984;10.672;2022-10-16T01:53:27;5.13;;;2.88;;
30133;SDS011;16946;49.984;10.672;2022-10-16T01:53:58;4.82;;;2.30;;
30133;SDS011;16946;49.984;10.672;2022-10-16T01:54:31;4.07;;;2.10;;
30133;SDS011;16946;49.984;10.672;2022-10-16T01:55:05;4.30;;;2.50;;
30133;SDS011;16946;49.984;10.672;2022-10-16T01:55:39;3.45;;;2.75;;
30133;SDS011;16946;49.984;10.672;2022-10-16T01:56:14;4.03;;;3.05;;
30133;SDS011;16946;49.984;10.672;2022-10-16T01:56:47;3.97;;;2.72;;
30133;SDS011;16946;49.984;10.672;2022-10-16T01:57:20;4.00;;;2.15;;
30133;SDS011;16946;49.984;10.672;2022-10-16T01:57:55;3.13;;;2.40;;
30133;SDS011;16946;49.984;10.672;2022-10-16T01:58:28;4.15;;;2.58;;
30133;SDS011;16946;49.984;10.672;2022-10-16T01:59:06;3.88;;;2.30;;
30133;SDS011;16946;49.984;10.672;2022-10-16T01:59:42;3.25;;;2.10;;
30133;SDS011;16946;49.984;10.672;2022-10-16T02:00:16;5.78;;;2.20;;
30133;SDS011;16946;49.984;10.672;2022-10-16T02:00:48;3.97;;;2.35;;
30133;SDS011;16946;49.984;10.672;2022-10-16T02:01:21;3.15;;;2.30;;
30133;SDS011;16946;49.984;10.672;2022-10-16T02:01:55;4.65;;;2.58;;
30133;SDS011;16946;49.984;10.672;2022-10-16T02:02:29;3.92;;;2.20;;
30133;SDS011;16946;49.984;10.672;2022-10-16T02:03:01;4.05;;;3.15;;
30133;SDS011;16946;49.984;10.672;2022-10-16T02:03:33;3.08;;;2.17;;
30133;SDS011;16946;49.984;10.672;2022-10-16T02:04:14;6.22;;;3.22;;
30133;SDS011;16946;49.984;10.672;2022-10-16T02:05:25;3.55;;;2.50;;
30133;SDS011;16946;49.984;10.672;2022-10-16T02:05:59;3.40;;;2.40;;
30133;SDS011;16946;49.984;10.672;2022-10-16T02:06:29;5.23;;;2.60;;
30133;SDS011;16946;49.984;10.672;2022-10-16T02:07:00;4.40;;;2.60;;
30133;SDS011;16946;49.984;10.672;2022-10-16T02:07:31;5.50;;;2.90;;
30133;SDS011;16946;49.984;10.672;2022-10-16T02:08:01;3.53;;;3.07;;
30133;SDS011;16946;49.984;10.672;2022-10-16T02:08:32;3.30;;;3.00;;
30133;SDS011;16946;49.984;10.672;2022-10-16T02:09:03;6.43;;;2.80;;
30133;SDS011;16946;49.984;10.672;2022-10-16T02:09:34;3.03;;;2.50;;
30133;SDS011;16946;49.984;10.672;2022-10-16T02:10:06;2.92;;;2.58;;
30133;SDS011;16946;49.984;10.672;2022-10-16T02:10:37;4.80;;;2.70;;
30133;SDS011;16946;49.984;10.672;2022-10-16T02:11:08;3.38;;;2.22;;
30133;SDS011;16946;49.984;10.672;2022-10-16T02:11:38;3.33;;;2.30;;
30133;SDS011;16946;49.984;10.672;2022-10-16T02:12:14;4.67;;;2.27;;
30133;SDS011;16946;49.984;10.672;2022-10-16T02:12:50;4.60;;;2.25;;
30133;SDS011;16946;49.984;10.672;2022-10-16T02:13:32;5.97;;;2.30;;
30133;SDS011;16946;49.984;10.672;2022-10-16T02:14:15;3.15;;;2.60;;
30133;SDS011;16946;49.984;10.672;2022-10-16T02:14:45;2.60;;;2.40;;
30133;SDS011;16946;49.984;10.672;2022-10-16T02:15:16;6.87;;;2.40;;
30133;SDS011;16946;49.984;10.672;2022-10-16T02:15:46;3.70;;;2.10;;
30133;SDS011;16946;49.984;10.672;2022-10-16T02:16:17;4.23;;;2.10;;
30133;SDS011;16946;49.984;10.672;2022-10-16T02:16:48;4.83;;;2.37;;
30133;SDS011;16946;49.984;10.672;2022-10-16T02:17:19;6.53;;;2.53;;
30133;SDS011;16946;49.984;10.672;2022-10-16T02:17:50;4.38;;;2.15;;
30133;SDS011;16946;49.984;10.672;2022-10-16T02:18:21;3.83;;;2.20;;
30133;SDS011;16946;49.984;10.672;2022-10-16T02:18:51;3.20;;;1.92;;
30133;SDS011;16946;49.984;10.672;2022-10-16T02:19:22;4.23;;;1.97;;
30133;SDS011;16946;49.984;10.672;2022-10-16T02:19:53;3.13;;;2.10;;
30133;SDS011;16946;49.984;10.672;2022-10-16T02:20:27;2.67;;;2.10;;
30133;SDS011;16946;49.984;10.672;2022-10-16T02:22:00;4.45;;;2.35;;
30133;SDS011;16946;49.984;10.672;2022-10-16T02:22:36;3.63;;;2.55;;
30133;SDS011;16946;49.984;10.672;2022-10-16T02:23:11;5.30;;;2.97;;
30133;SDS011;16946;49.984;10.672;2022-10-16T02:24:33;4.75;;;2.30;;
30133;SDS011;16946;49.984;10.672;2022-10-16T02:25:10;4.53;;;2.50;;
30133;SDS011;16946;49.984;10.672;2022-10-16T02:25:45;4.32;;;2.38;;
30133;SDS011;16946;49.984;10.672;2022-10-16T02:26:18;2.85;;;2.47;;
30133;SDS011;16946;49.984;10.672;2022-10-16T02:27:35;4.63;;;2.75;;
30133;SDS011;16946;49.984;10.672;2022-10-16T02:28:22;4.63;;;2.72;;
30133;SDS011;16946;49.984;10.672;2022-10-16T02:29:00;6.47;;;2.72;;
30133;SDS011;16946;49.984;10.672;2022-10-16T02:29:35;4.18;;;2.35;;
30133;SDS011;16946;49.984;10.672;2022-10-16T02:30:58;4.80;;;3.28;;
30133;SDS011;16946;49.984;10.672;2022-10-16T02:31:34;3.20;;;2.63;;
30133;SDS011;16946;49.984;10.672;2022-10-16T02:32:08;4.75;;;2.75;;
30133;SDS011;16946;49.984;10.672;2022-10-16T02:32:42;3.88;;;2.63;;
30133;SDS011;16946;49.984;10.672;2022-10-16T02:33:15;4.35;;;2.92;;
30133;SDS011;16946;49.984;10.672;2022-10-16T02:33:46;8.07;;;3.00;;
30133;SDS011;16946;49.984;10.672;2022-10-16T02:34:18;5.70;;;2.70;;
30133;SDS011;16946;49.984;10.672;2022-10-16T02:34:50;4.25;;;2.70;;
30133;SDS011;16946;49.984;10.672;2022-10-16T02:35:22;7.10;;;2.63;;
30133;SDS011;16946;49.984;10.672;2022-10-16T02:35:54;5.28;;;3.15;;
30133;SDS011;16946;49.984;10.672;2022-10-16T02:36:26;5.05;;;3.30;;
30133;SDS011;16946;49.984;10.672;2022-10-16T02:36:57;3.22;;;2.50;;
30133;SDS011;16946;49.984;10.672;2022-10-16T02:37:29;3.88;;;2.63;;
30133;SDS011;16946;49.984;10.672;2022-10-16T02:38:00;5.13;;;2.70;;
30133;SDS011;16946;49.984;10.672;2022-10-16T02:38:31;5.22;;;2.92;;
30133;SDS011;16946;49.984;10.672;2022-10-16T02:39:03;5.20;;;2.73;;
30133;SDS011;16946;49.984;10.672;2022-10-16T02:39:34;3.53;;;2.42;;
30133;SDS011;16946;49.984;10.672;2022-10-16T02:40:05;4.83;;;2.53;;
30133;SDS011;16946;49.984;10.672;2022-10-16T02:40:37;6.28;;;2.78;;
30133;SDS011;16946;49.984;10.672;2022-10-16T02:41:08;4.72;;;2.63;;
30133;SDS011;16946;49.984;10.672;2022-10-16T02:41:39;5.53;;;3.33;;
30133;SDS011;16946;49.984;10.672;2022-10-16T02:42:13;3.73;;;2.73;;
30133;SDS011;16946;49.984;10.672;2022-10-16T02:42:44;5.22;;;2.67;;
30133;SDS011;16946;49.984;10.672;2022-10-16T02:43:14;5.53;;;2.80;;
30133;SDS011;16946;49.984;10.672;2022-10-16T02:43:45;4.60;;;3.00;;
30133;SDS011;16946;49.984;10.672;2022-10-16T02:44:16;5.57;;;3.37;;
30133;SDS011;16946;49.984;10.672;2022-10-16T02:44:46;3.90;;;2.80;;
30133;SDS011;16946;49.984;10.672;2022-10-16T02:45:17;5.70;;;2.63;;
30133;SDS011;16946;49.984;10.672;2022-10-16T02:45:48;4.18;;;2.55;;
30133;SDS011;16946;49.984;10.672;2022-10-16T02:46:19;4.57;;;2.87;;
30133;SDS011;16946;49.984;10.672;2022-10-16T02:46:49;4.70;;;2.93;;
30133;SDS011;16946;49.984;10.672;2022-10-16T02:47:20;8.53;;;3.43;;
30133;SDS011;16946;49.984;10.672;2022-10-16T02:47:51;5.03;;;3.27;;
30133;SDS011;16946;49.984;10.672;2022-10-16T02:48:21;6.30;;;3.47;;
30133;SDS011;16946;49.984;10.672;2022-10-16T02:48:52;7.30;;;3.70;;
30133;SDS011;16946;49.984;10.672;2022-10-16T02:49:22;6.87;;;3.83;;
30133;SDS011;16946;49.984;10.672;2022-10-16T02:49:53;5.50;;;3.83;;
30133;SDS011;16946;49.984;10.672;2022-10-16T02:50:23;5.97;;;3.40;;
30133;SDS011;16946;49.984;10.672;2022-10-16T02:50:55;3.60;;;3.28;;
30133;SDS011;16946;49.984;10.672;2022-10-16T02:51:26;4.45;;;3.70;;
30133;SDS011;16946;49.984;10.672;2022-10-16T02:51:57;7.33;;;3.87;;
30133;SDS011;16946;49.984;10.672;2022-10-16T02:52:28;3.90;;;3.47;;
30133;SDS011;16946;49.984;10.672;2022-10-16T02:52:58;3.80;;;3.50;;
30133;SDS011;16946;49.984;10.672;2022-10-16T02:53:29;6.67;;;4.53;;
30133;SDS011;16946;49.984;10.672;2022-10-16T02:53:59;6.23;;;3.80;;
30133;SDS011;16946;49.984;10.672;2022-10-16T02:54:30;6.37;;;3.37;;
30133;SDS011;16946;49.984;10.672;2022-10-16T02:55:00;4.60;;;3.10;;
30133;SDS011;16946;49.984;10.672;2022-10-16T02:55:31;5.37;;;3.60;;
30133;SDS011;16946;49.984;10.672;2022-10-16T02:56:02;6.95;;;3.33;;
30133;SDS011;16946;49.984;10.672;2022-10-16T02:56:33;4.93;;;3.33;;
30133;SDS011;16946;49.984;10.672;2022-10-16T02:57:03;5.87;;;3.13;;
30133;SDS011;16946;49.984;10.672;2022-10-16T02:57:34;7.53;;;3.63;;
30133;SDS011;16946;49.984;10.672;2022-10-16T02:58:06;6.88;;;3.80;;
30133;SDS011;16946;49.984;10.672;2022-10-16T02:58:37;7.03;;;3.53;;
30133;SDS011;16946;49.984;10.672;2022-10-16T02:59:07;5.57;;;3.10;;
30133;SDS011;16946;49.984;10.672;2022-10-16T02:59:38;3.77;;;3.20;;
30133;SDS011;16946;49.984;10.672;2022-10-16T03:00:09;8.07;;;3.50;;
30133;SDS011;16946;49.984;10.672;2022-10-16T03:00:42;6.40;;;3.33;;
30133;SDS011;16946;49.984;10.672;2022-10-16T03:01:12;5.40;;;3.10;;
30133;SDS011;16946;49.984;10.672;2022-10-16T03:01:44;5.65;;;3.33;;
30133;SDS011;16946;49.984;10.672;2022-10-16T03:02:14;6.47;;;3.63;;
30133;SDS011;16946;49.984;10.672;2022-10-16T03:02:45;4.07;;;3.00;;
30133;SDS011;16946;49.984;10.672;2022-10-16T03:03:17;4.07;;;3.30;;
30133;SDS011;16946;49.984;10.672;2022-10-16T03:03:47;6.23;;;3.40;;
30133;SDS011;16946;49.984;10.672;2022-10-16T03:04:18;3.77;;;3.07;;
30133;SDS011;16946;49.984;10.672;2022-10-16T03:04:48;4.83;;;3.20;;
30133;SDS011;16946;49.984;10.672;2022-10-16T03:05:19;6.83;;;3.03;;
30133;SDS011;16946;49.984;10.672;2022-10-16T03:05:49;5.40;;;3.30;;
30133;SDS011;16946;49.984;10.672;2022-10-16T03:06:20;5.80;;;3.60;;
30133;SDS011;16946;49.984;10.672;2022-10-16T03:06:50;5.27;;;3.57;;
30133;SDS011;16946;49.984;10.672;2022-10-16T03:07:21;5.27;;;3.30;;
30133;SDS011;16946;49.984;10.672;2022-10-16T03:07:51;3.30;;;3.00;;
30133;SDS011;16946;49.984;10.672;2022-10-16T03:08:22;3.83;;;3.40;;
30133;SDS011;16946;49.984;10.672;2022-10-16T03:08:55;4.65;;;3.25;;
30133;SDS011;16946;49.984;10.672;2022-10-16T03:09:25;3.80;;;2.77;;
30133;SDS011;16946;49.984;10.672;2022-10-16T03:09:56;6.53;;;3.20;;
30133;SDS011;16946;49.984;10.672;2022-10-16T03:10:27;4.30;;;3.25;;
30133;SDS011;16946;49.984;10.672;2022-10-16T03:10:57;6.80;;;2.83;;
30133;SDS011;16946;49.984;10.672;2022-10-16T03:11:28;3.73;;;3.30;;
30133;SDS011;16946;49.984;10.672;2022-10-16T03:11:59;5.97;;;3.23;;
30133;SDS011;16946;49.984;10.672;2022-10-16T03:12:29;5.30;;;3.10;;
30133;SDS011;16946;49.984;10.672;2022-10-16T03:13:00;5.97;;;3.83;;
30133;SDS011;16946;49.984;10.672;2022-10-16T03:13:30;5.33;;;3.10;;
30133;SDS011;16946;49.984;10.672;2022-10-16T03:14:01;6.60;;;3.17;;
30133;SDS011;16946;49.984;10.672;2022-10-16T03:14:31;5.30;;;3.07;;
30133;SDS011;16946;49.984;10.672;2022-10-16T03:15:02;5.27;;;3.30;;
30133;SDS011;16946;49.984;10.672;2022-10-16T03:15:33;5.27;;;3.10;;
30133;SDS011;16946;49.984;10.672;2022-10-16T03:16:04;7.23;;;3.30;;
30133;SDS011;16946;49.984;10.672;2022-10-16T03:16:34;4.47;;;3.10;;
30133;SDS011;16946;49.984;10.672;2022-10-16T03:17:05;5.20;;;2.83;;
30133;SDS011;16946;49.984;10.672;2022-10-16T03:17:36;4.50;;;2.97;;
30133;SDS011;16946;49.984;10.672;2022-10-16T03:18:06;4.47;;;2.67;;
30133;SDS011;16946;49.984;10.672;2022-10-16T03:18:37;4.53;;;2.70;;
30133;SDS011;16946;49.984;10.672;2022-10-16T03:19:07;4.83;;;2.67;;
30133;SDS011;16946;49.984;10.672;2022-10-16T03:19:38;4.17;;;3.00;;
30133;SDS011;16946;49.984;10.672;2022-10-16T03:20:09;3.50;;;2.97;;
30133;SDS011;16946;49.984;10.672;2022-10-16T03:20:40;4.30;;;2.85;;
30133;SDS011;16946;49.984;10.672;2022-10-16T03:21:10;2.50;;;2.27;;
30133;SDS011;16946;49.984;10.672;2022-10-16T03:21:41;3.80;;;2.43;;
30133;SDS011;16946;49.984;10.672;2022-10-16T03:22:12;5.20;;;2.83;;
30133;SDS011;16946;49.984;10.672;2022-10-16T03:22:42;5.33;;;2.47;;
30133;SDS011;16946;49.984;10.672;2022-10-16T03:23:13;4.20;;;2.70;;
30133;SDS011;16946;49.984;10.672;2022-10-16T03:23:43;6.03;;;2.63;;
30133;SDS011;16946;49.984;10.672;2022-10-16T03:24:14;2.50;;;2.27;;
30133;SDS011;16946;49.984;10.672;2022-10-16T03:24:44;4.17;;;2.37;;
30133;SDS011;16946;49.984;10.672;2022-10-16T03:25:15;3.87;;;2.57;;
30133;SDS011;16946;49.984;10.672;2022-10-16T03:25:46;5.80;;;2.80;;
30133;SDS011;16946;49.984;10.672;2022-10-16T03:26:16;2.93;;;2.63;;
30133;SDS011;16946;49.984;10.672;2022-10-16T03:26:47;3.87;;;2.57;;
30133;SDS011;16946;49.984;10.672;2022-10-16T03:27:17;4.00;;;2.50;;
30133;SDS011;16946;49.984;10.672;2022-10-16T03:27:48;4.13;;;2.37;;
30133;SDS011;16946;49.984;10.672;2022-10-16T03:28:18;2.43;;;2.23;;
30133;SDS011;16946;49.984;10.672;2022-10-16T03:28:49;2.83;;;2.53;;
30133;SDS011;16946;49.984;10.672;2022-10-16T03:29:19;2.87;;;2.40;;
30133;SDS011;16946;49.984;10.672;2022-10-16T03:29:50;7.73;;;2.60;;
30133;SDS011;16946;49.984;10.672;2022-10-16T03:30:21;3.33;;;2.30;;
30133;SDS011;16946;49.984;10.672;2022-10-16T03:30:51;3.47;;;2.30;;
30133;SDS011;16946;49.984;10.672;2022-10-16T03:31:22;2.93;;;2.57;;
30133;SDS011;16946;49.984;10.672;2022-10-16T03:31:52;4.03;;;2.57;;